Time;durP1;ratioP1;P1;durP2;ratioP2;P2;SDS_P1;SDS_P2;PMS_P1;PMS_P2;Temp;Humidity;BMP_temperature;BMP_pressure;BME280_temperature;BME280_humidity;BME280_pressure;Samples;Min_cycle;Max_cycle;Signal;HPM_P1;HPM_P2
2023/02/09 00:03:16;;;;;;;73.00;29.30;;;;;;;-5.38;77.32;102268.59;219231;1254;140892;-64
2023/02/09 00:08:22;;;;;;;48.40;23.50;;;;;;;-5.48;77.27;102270.44;219196;1256;139495;-64
2023/02/09 00:13:28;;;;;;;48.90;21.30;;;;;;;-5.55;77.49;102269.20;218286;1254;140498;-65
2023/02/09 00:18:33;;;;;;;51.30;22.80;;;;;;;-5.58;77.10;102259.47;219028;1254;140459;-63
2023/02/09 00:23:40;;;;;;;34.90;19.00;;;;;;;-5.67;77.25;102260.05;219216;1254;139443;-65
2023/02/09 00:28:45;;;;;;;43.30;23.20;;;;;;;-5.79;77.02;102254.33;218225;1254;140644;-64
2023/02/09 00:33:55;;;;;;;51.10;22.20;;;;;;;-5.97;77.20;102253.24;219347;1254;140123;-64
2023/02/09 00:39:01;;;;;;;53.10;23.20;;;;;;;-6.06;77.39;102250.71;218150;1256;139523;-65
2023/02/09 00:44:06;;;;;;;53.70;25.60;;;;;;;-6.15;77.21;102254.39;219876;1256;140388;-65
2023/02/09 00:49:13;;;;;;;41.50;24.00;;;;;;;-6.23;77.41;102258.91;218774;1254;141590;-65
2023/02/09 00:54:19;;;;;;;66.30;28.50;;;;;;;-6.38;77.28;102254.52;218076;1253;139976;-65
2023/02/09 00:59:24;;;;;;;52.20;27.80;;;;;;;-6.48;77.56;102246.10;219559;1254;140711;-66
2023/02/09 01:04:29;;;;;;;38.90;23.40;;;;;;;-6.55;77.63;102242.27;220911;1254;139768;-67
2023/02/09 01:09:34;;;;;;;52.60;25.00;;;;;;;-6.70;77.28;102236.13;220054;1254;141155;-63
2023/02/09 01:14:39;;;;;;;58.10;25.60;;;;;;;-6.73;77.26;102228.67;220854;1254;140604;-64
2023/02/09 01:19:43;;;;;;;72.50;32.50;;;;;;;-6.80;77.14;102220.98;220759;1254;140125;-65
2023/02/09 01:24:47;;;;;;;57.00;26.80;;;;;;;-6.83;77.78;102214.16;220956;1253;140130;-65
2023/02/09 01:29:52;;;;;;;36.60;19.60;;;;;;;-6.84;77.63;102212.33;220903;1254;139696;-64
2023/02/09 01:34:57;;;;;;;46.50;21.40;;;;;;;-6.91;77.58;102203.79;220036;1254;141824;-67
2023/02/09 01:40:03;;;;;;;37.00;20.70;;;;;;;-6.96;77.34;102195.37;219472;1254;140802;-66
2023/02/09 01:45:14;;;;;;;42.30;22.30;;;;;;;-7.12;77.26;102182.21;219430;1253;140557;-65
2023/02/09 01:50:21;;;;;;;64.70;26.50;;;;;;;-7.35;77.43;102172.23;218510;1256;139564;-68
2023/02/09 01:55:28;;;;;;;50.40;20.50;;;;;;;-7.44;78.05;102167.73;219632;1256;140745;-67
2023/02/09 02:00:33;;;;;;;53.90;22.90;;;;;;;-7.54;77.93;102166.42;218764;1253;139846;-66
2023/02/09 02:05:41;;;;;;;53.80;24.10;;;;;;;-7.64;77.94;102157.48;218960;1254;142160;-66
2023/02/09 02:10:46;;;;;;;57.20;22.70;;;;;;;-7.69;78.34;102147.15;218923;1254;142359;-66
2023/02/09 02:16:04;;;;;;;40.30;19.40;;;;;;;-7.73;78.66;102140.41;219080;1254;140212;-65
2023/02/09 02:21:12;;;;;;;41.60;20.80;;;;;;;-7.72;78.94;102141.56;219281;1253;140075;-65
2023/02/09 02:26:23;;;;;;;51.80;24.90;;;;;;;-7.76;78.66;102133.79;219580;1256;140748;-66
2023/02/09 02:31:49;;;;;;;36.50;20.50;;;;;;;-7.81;78.89;102121.71;218943;1256;139860;-66
2023/02/09 02:37:26;;;;;;;47.50;22.40;;;;;;;-7.83;79.18;102117.64;219032;1254;140372;-66
2023/02/09 02:42:47;;;;;;;39.60;18.40;;;;;;;-7.82;79.46;102109.48;218720;1254;139877;-66
2023/02/09 02:48:01;;;;;;;48.30;22.30;;;;;;;-7.72;80.13;102093.57;218731;1254;139481;-66
2023/02/09 02:53:09;;;;;;;49.20;24.10;;;;;;;-7.56;80.12;102088.42;219191;1253;140942;-66
2023/02/09 02:58:17;;;;;;;33.60;17.00;;;;;;;-7.47;80.21;102086.34;219464;1253;140390;-66
2023/02/09 03:03:28;;;;;;;43.50;19.10;;;;;;;-7.46;80.12;102079.42;218781;1253;221341;-67
2023/02/09 03:09:06;;;;;;;38.30;19.90;;;;;;;-7.40;80.26;102068.48;219814;1253;139723;-65
2023/02/09 03:15:08;;;;;;;46.60;18.40;;;;;;;-7.36;80.34;102061.91;219146;1254;139448;-64
2023/02/09 03:20:37;;;;;;;43.50;21.30;;;;;;;-7.28;80.33;102057.39;219425;1253;140137;-65
2023/02/09 03:25:49;;;;;;;29.70;13.30;;;;;;;-7.13;80.51;102053.66;220600;1253;140845;-66
2023/02/09 03:30:57;;;;;;;44.40;18.30;;;;;;;-7.08;80.26;102056.06;220168;1254;139626;-68
2023/02/09 03:36:12;;;;;;;37.70;18.10;;;;;;;-7.09;80.33;102051.61;219423;1256;139766;-67
2023/02/09 03:41:17;;;;;;;32.40;15.70;;;;;;;-7.07;80.29;102040.65;220158;1254;140378;-67
2023/02/09 03:46:23;;;;;;;52.70;24.10;;;;;;;-7.03;80.45;102032.70;219466;1256;140498;-67
2023/02/09 03:51:27;;;;;;;44.90;23.30;;;;;;;-6.96;80.44;102027.89;219651;1254;140397;-64
2023/02/09 03:56:36;;;;;;;43.80;19.60;;;;;;;-7.00;80.53;102028.91;218406;1256;140053;-65
2023/02/09 04:01:40;;;;;;;40.20;19.20;;;;;;;-7.04;80.53;102028.24;219026;1254;139612;-66
2023/02/09 04:06:44;;;;;;;40.80;19.20;;;;;;;-7.07;80.52;102025.08;218839;1256;305257;-66
2023/02/09 04:11:50;;;;;;;29.20;16.20;;;;;;;-7.09;80.33;102022.60;218748;1253;140162;-67
2023/02/09 04:16:55;;;;;;;44.20;20.60;;;;;;;-7.15;80.64;102016.40;219690;1254;141170;-67
2023/02/09 04:21:59;;;;;;;47.00;21.10;;;;;;;-7.13;80.81;102009.12;218388;1254;139809;-67
2023/02/09 04:27:03;;;;;;;49.10;21.80;;;;;;;-7.10;80.99;102003.97;219283;1254;140061;-66
2023/02/09 04:32:07;;;;;;;40.20;17.70;;;;;;;-7.09;80.85;102001.83;219684;1256;140036;-66
2023/02/09 04:37:12;;;;;;;50.50;24.90;;;;;;;-7.09;80.79;102001.33;219419;1255;140417;-66
2023/02/09 04:42:16;;;;;;;44.00;20.40;;;;;;;-7.11;80.90;102002.45;219638;1256;139980;-66
2023/02/09 04:47:22;;;;;;;48.30;23.70;;;;;;;-7.09;80.86;101988.39;218829;1257;140746;-65
2023/02/09 04:52:27;;;;;;;37.50;16.80;;;;;;;-7.08;80.79;101980.88;220410;1254;141721;-66
2023/02/09 05:02:55;;;;;;;46.90;22.50;;;;;;;-7.00;80.81;101977.40;219242;1254;140748;-65
2023/02/09 05:08:01;;;;;;;35.00;16.90;;;;;;;-6.98;80.60;101970.73;220992;1254;140404;-64
2023/02/09 05:13:06;;;;;;;47.40;23.60;;;;;;;-6.99;80.22;101976.16;219507;1256;140772;-66
2023/02/09 05:18:11;;;;;;;38.60;19.50;;;;;;;-7.09;80.22;101979.20;219548;1254;140354;-65
2023/02/09 05:23:15;;;;;;;48.00;22.60;;;;;;;-7.18;80.13;101973.67;219987;1254;139741;-66
2023/02/09 05:28:21;;;;;;;53.00;26.00;;;;;;;-7.26;80.22;101959.02;218338;1257;140293;-66
2023/02/09 05:33:25;;;;;;;50.80;21.40;;;;;;;-7.30;80.55;101962.65;219546;1255;141193;-66
2023/02/09 05:38:29;;;;;;;43.90;22.10;;;;;;;-7.28;80.59;101970.16;219084;1254;140860;-65
2023/02/09 05:43:34;;;;;;;55.20;25.20;;;;;;;-7.27;80.65;101967.16;218453;1257;142551;-66
2023/02/09 05:48:39;;;;;;;37.90;19.60;;;;;;;-7.25;80.81;101962.10;219362;1256;140416;-66
2023/02/09 05:53:43;;;;;;;54.20;27.70;;;;;;;-7.24;80.72;101959.63;218609;1257;140445;-65
2023/02/09 05:58:48;;;;;;;41.50;20.50;;;;;;;-7.20;80.81;101957.90;218789;1257;140204;-65
2023/02/09 06:03:51;;;;;;;28.00;14.90;;;;;;;-7.18;80.76;101950.55;218562;1260;140391;-65
2023/02/09 06:08:56;;;;;;;48.80;22.30;;;;;;;-7.16;80.88;101956.01;218127;1254;139818;-66
2023/02/09 06:14:00;;;;;;;60.20;30.70;;;;;;;-7.18;80.85;101955.89;218491;1253;140255;-65
2023/02/09 06:19:05;;;;;;;53.00;24.60;;;;;;;-7.18;80.63;101951.95;218562;1254;139969;-65
2023/02/09 06:24:10;;;;;;;53.60;24.80;;;;;;;-7.17;80.79;101944.45;219024;1253;139979;-66
2023/02/09 06:29:14;;;;;;;39.20;19.70;;;;;;;-7.15;80.61;101938.67;219762;1257;233814;-65
2023/02/09 06:34:19;;;;;;;48.10;28.10;;;;;;;-7.12;80.59;101935.11;218582;1254;139869;-65
2023/02/09 06:39:25;;;;;;;47.60;23.70;;;;;;;-7.02;80.84;101932.08;219886;1253;140964;-65
2023/02/09 06:44:30;;;;;;;61.00;26.90;;;;;;;-6.86;81.31;101924.07;219977;1254;141286;-65
2023/02/09 06:49:35;;;;;;;58.90;24.90;;;;;;;-6.62;81.24;101925.73;220458;1254;141543;-63
2023/02/09 06:54:41;;;;;;;44.70;22.70;;;;;;;-6.31;81.54;101923.05;218859;1254;140053;-68
2023/02/09 06:59:47;;;;;;;45.10;22.70;;;;;;;-5.98;81.48;101911.71;220705;1254;140598;-66
2023/02/09 07:04:51;;;;;;;48.70;22.40;;;;;;;-5.38;81.47;101912.63;220193;1256;142034;-66
2023/02/09 07:10:05;;;;;;;52.20;25.20;;;;;;;-4.46;81.26;101904.69;220268;1254;140709;-69
2023/02/09 07:15:12;;;;;;;52.50;28.20;;;;;;;-3.37;80.88;101904.59;219871;1254;140028;-73
2023/02/09 07:20:17;;;;;;;58.80;30.10;;;;;;;-2.42;79.48;101898.69;219917;1256;139802;-74
2023/02/09 07:25:22;;;;;;;47.00;24.40;;;;;;;-1.67;77.94;101888.70;219108;1254;139004;-69
2023/02/09 07:30:29;;;;;;;62.10;33.90;;;;;;;-1.18;77.25;101885.69;219309;1254;139738;-70
2023/02/09 07:35:33;;;;;;;56.70;28.10;;;;;;;-0.76;76.66;101886.86;218574;1257;139409;-70
2023/02/09 07:40:38;;;;;;;59.20;32.80;;;;;;;-0.60;75.48;101882.58;219485;1254;140951;-71
2023/02/09 07:45:42;;;;;;;58.00;27.90;;;;;;;-0.50;74.82;101885.52;219536;1254;140733;-71
2023/02/09 07:50:49;;;;;;;44.70;22.20;;;;;;;-0.62;74.22;101883.12;218892;1254;211349;-67
2023/02/09 07:55:54;;;;;;;52.30;29.70;;;;;;;-0.68;73.83;101885.08;219090;1254;140641;-69
2023/02/09 08:01:05;;;;;;;67.60;35.90;;;;;;;-0.84;73.40;101885.85;218449;1257;140102;-68
2023/02/09 08:06:17;;;;;;;46.80;27.10;;;;;;;-1.03;73.44;101887.23;219098;1254;140599;-70
2023/02/09 08:11:41;;;;;;;59.90;32.60;;;;;;;-1.53;72.52;101880.41;219034;1254;140326;-74
2023/02/09 08:17:18;;;;;;;47.20;24.60;;;;;;;-1.88;73.16;101886.95;219040;1254;141596;-78
2023/02/09 08:22:16;;;;;;;62.40;30.10;;;;;;;-1.95;73.38;101884.48;219098;1252;140281;-76
2023/02/09 08:27:22;;;;;;;44.70;24.30;;;;;;;-1.92;73.64;101889.17;219154;1254;140252;-73
2023/02/09 08:32:26;;;;;;;50.70;23.30;;;;;;;-1.91;73.69;101886.63;218619;1254;141576;-72
2023/02/09 08:37:31;;;;;;;49.50;25.80;;;;;;;-1.88;73.57;101887.14;220310;1254;139980;-79
2023/02/09 08:42:35;;;;;;;51.70;27.00;;;;;;;-1.75;73.92;101878.59;219562;1254;140908;-66
2023/02/09 08:47:39;;;;;;;45.30;21.60;;;;;;;-1.54;74.19;101880.84;220742;1252;140991;-66
2023/02/09 08:52:43;;;;;;;55.50;29.00;;;;;;;-1.27;74.08;101874.60;220850;1254;140984;-67
2023/02/09 08:57:47;;;;;;;54.80;28.30;;;;;;;-1.01;74.03;101878.85;220879;1254;141359;-68
2023/02/09 09:02:51;;;;;;;55.50;27.70;;;;;;;-0.73;73.83;101877.74;220761;1254;140728;-67
2023/02/09 09:07:56;;;;;;;48.50;26.30;;;;;;;-0.47;73.51;101873.77;219666;1254;140244;-70
2023/02/09 09:13:00;;;;;;;42.40;22.80;;;;;;;-0.22;73.23;101868.77;219303;1252;141321;-73
2023/02/09 09:18:04;;;;;;;37.90;21.00;;;;;;;-0.03;72.87;101872.46;218842;1254;140115;-66
2023/02/09 09:23:10;;;;;;;42.00;21.20;;;;;;;0.12;72.45;101870.64;219119;1254;140227;-67
2023/02/09 09:28:14;;;;;;;37.70;20.20;;;;;;;0.15;72.19;101867.25;218678;1257;139185;-69
2023/02/09 09:33:19;;;;;;;41.10;24.10;;;;;;;0.30;71.82;101864.75;219900;1253;140727;-73
2023/02/09 09:38:24;;;;;;;40.10;21.70;;;;;;;0.50;72.04;101857.45;218617;1257;151691;-70
2023/02/09 09:43:37;;;;;;;40.10;20.30;;;;;;;0.69;71.74;101857.36;218343;1255;139828;-70
2023/02/09 09:49:00;;;;;;;34.60;19.50;;;;;;;0.86;71.34;101853.34;218629;1254;140340;-69
2023/02/09 09:54:13;;;;;;;30.80;18.20;;;;;;;1.11;71.17;101848.42;218133;1257;139364;-74
2023/02/09 09:59:25;;;;;;;33.20;18.90;;;;;;;1.32;71.03;101844.95;218936;1254;140068;-66
2023/02/09 10:04:30;;;;;;;29.20;14.90;;;;;;;1.51;70.29;101830.45;217974;1257;139127;-67
2023/02/09 10:09:43;;;;;;;40.30;20.30;;;;;;;1.69;69.91;101825.26;218828;1254;205593;-70
2023/02/09 10:14:47;;;;;;;27.20;15.80;;;;;;;1.90;69.88;101821.07;218073;1254;141503;-69
2023/02/09 10:20:06;;;;;;;29.40;18.00;;;;;;;2.01;68.97;101807.73;219548;1254;140027;-66
2023/02/09 10:25:37;;;;;;;34.70;18.60;;;;;;;2.17;69.29;101796.70;219132;1256;139500;-70
2023/02/09 10:30:45;;;;;;;36.90;17.70;;;;;;;2.29;68.59;101788.09;218943;1255;139373;-68
2023/02/09 10:35:53;;;;;;;33.50;17.40;;;;;;;2.42;68.36;101778.23;219016;1254;140409;-68
2023/02/09 10:40:59;;;;;;;26.20;15.10;;;;;;;2.54;67.83;101773.86;219464;1254;139898;-68
2023/02/09 10:46:16;;;;;;;33.20;17.90;;;;;;;2.70;67.78;101760.52;219635;1254;140394;-69
2023/02/09 10:51:27;;;;;;;27.90;16.60;;;;;;;2.80;67.35;101755.63;220337;1253;140440;-69
2023/02/09 10:56:41;;;;;;;24.80;14.60;;;;;;;2.90;67.10;101750.27;219216;1254;140732;-68
2023/02/09 11:01:58;;;;;;;29.50;15.30;;;;;;;3.08;66.72;101738.06;219756;1253;140843;-69
2023/02/09 11:07:12;;;;;;;30.20;15.20;;;;;;;3.04;66.46;101739.40;219879;1253;139234;-68
2023/02/09 11:12:19;;;;;;;30.90;16.60;;;;;;;3.10;65.75;101733.59;219014;1254;141263;-67
2023/02/09 11:17:30;;;;;;;25.00;15.40;;;;;;;3.10;65.68;101721.31;218400;1253;139422;-68
2023/02/09 11:23:03;;;;;;;22.20;12.40;;;;;;;3.19;65.19;101712.39;218432;1253;139212;-68
2023/02/09 11:28:40;;;;;;;24.20;14.20;;;;;;;3.17;65.02;101708.73;218307;1254;141278;-68
2023/02/09 11:34:06;;;;;;;23.00;13.70;;;;;;;3.29;64.69;101708.70;219126;1253;140374;-69
2023/02/09 11:39:28;;;;;;;26.30;15.90;;;;;;;3.29;64.09;101695.86;218420;1253;140399;-69
2023/02/09 11:44:35;;;;;;;21.90;14.70;;;;;;;3.20;63.60;101696.91;219273;1254;139440;-68
2023/02/09 11:49:47;;;;;;;14.50;10.50;;;;;;;3.23;63.76;101695.91;218271;1254;139755;-69
2023/02/09 11:54:56;;;;;;;25.90;13.80;;;;;;;3.39;63.83;101690.38;218612;1254;140360;-70
2023/02/09 12:00:04;;;;;;;22.30;14.20;;;;;;;3.52;63.56;101695.88;218631;1253;141022;-68
2023/02/09 12:05:15;;;;;;;22.60;14.10;;;;;;;3.58;63.31;101693.05;218052;1254;141116;-65
2023/02/09 12:10:38;;;;;;;22.40;12.20;;;;;;;3.61;63.07;101687.98;218674;1256;138952;-68
2023/02/09 12:15:51;;;;;;;22.30;14.30;;;;;;;3.68;63.14;101686.66;218043;1254;139402;-67
2023/02/09 12:20:57;;;;;;;20.80;11.80;;;;;;;3.67;62.46;101677.02;219003;1255;139967;-69
2023/02/09 12:26:30;;;;;;;21.90;12.10;;;;;;;3.70;62.50;101668.44;218091;1256;140287;-69
2023/02/09 12:32:07;;;;;;;23.00;12.60;;;;;;;3.65;61.88;101658.05;217874;1256;139705;-69
2023/02/09 12:37:15;;;;;;;18.80;12.30;;;;;;;3.63;62.00;101650.86;218053;1257;139349;-69
2023/02/09 12:42:26;;;;;;;26.00;13.20;;;;;;;3.61;61.80;101649.52;218713;1253;139938;-70
2023/02/09 12:47:54;;;;;;;21.90;13.10;;;;;;;3.55;61.53;101640.70;220405;1253;139379;-71
2023/02/09 12:53:23;;;;;;;24.70;14.20;;;;;;;3.51;61.60;101634.05;218558;1254;138634;-69
2023/02/09 12:58:44;;;;;;;18.00;11.40;;;;;;;3.58;61.66;101627.94;219169;1254;244861;-68
2023/02/09 13:04:15;;;;;;;19.80;12.00;;;;;;;3.67;61.35;101623.89;218565;1254;139856;-68
2023/02/09 13:09:31;;;;;;;17.00;11.00;;;;;;;3.65;61.39;101620.08;218576;1254;139424;-65
2023/02/09 13:14:43;;;;;;;14.30;7.90;;;;;;;3.76;61.42;101620.14;219948;1253;140243;-67
2023/02/09 13:19:47;;;;;;;20.90;11.40;;;;;;;3.80;61.06;101618.13;219396;1254;139121;-69
2023/02/09 13:25:08;;;;;;;17.70;11.80;;;;;;;3.68;60.87;101609.59;219376;1253;140203;-68
2023/02/09 13:30:28;;;;;;;21.00;13.20;;;;;;;3.57;60.62;101606.84;218326;1253;140802;-69
2023/02/09 13:35:48;;;;;;;22.70;12.60;;;;;;;3.55;60.68;101599.07;218157;1254;140065;-68
2023/02/09 13:40:54;;;;;;;17.40;11.00;;;;;;;3.42;60.21;101586.25;219214;1254;140768;-69
2023/02/09 13:46:00;;;;;;;20.70;12.50;;;;;;;3.30;60.42;101589.68;217969;1254;139080;-65
2023/02/09 13:51:17;;;;;;;16.30;11.00;;;;;;;3.29;60.69;101587.63;218420;1254;139808;-68
2023/02/09 13:56:22;;;;;;;19.60;11.40;;;;;;;3.27;60.80;101583.05;218086;1253;140401;-68
2023/02/09 14:01:35;;;;;;;20.90;12.10;;;;;;;3.17;60.38;101575.74;218370;1254;139179;-68
2023/02/09 14:06:50;;;;;;;21.30;10.10;;;;;;;3.09;60.63;101565.46;219387;1254;141069;-68
2023/02/09 14:12:01;;;;;;;21.50;13.00;;;;;;;3.04;60.30;101560.05;218116;1254;139169;-69
2023/02/09 14:17:30;;;;;;;19.10;12.20;;;;;;;2.99;60.33;101557.20;219352;1253;140797;-67
2023/02/09 14:22:38;;;;;;;339.70;143.00;;;;;;;2.94;60.54;101546.64;218300;1254;139525;-70
2023/02/09 14:27:46;;;;;;;44.80;20.90;;;;;;;2.85;60.42;101547.39;220902;1253;140204;-70
2023/02/09 14:32:54;;;;;;;26.50;15.90;;;;;;;2.81;60.71;101540.41;218119;1256;151127;-68
2023/02/09 14:38:00;;;;;;;;;;;;;;;2.75;60.43;101535.73;218015;1256;139774;-67
2023/02/09 14:43:10;;;;;;;28.10;25.10;;;;;;;2.64;60.32;101534.64;219192;1253;126905;-69
2023/02/09 14:48:17;;;;;;;18.90;11.60;;;;;;;2.57;60.57;101539.29;221043;1254;139942;-67
2023/02/09 14:53:27;;;;;;;18.10;12.40;;;;;;;2.51;60.38;101535.65;218920;1253;140727;-70
2023/02/09 14:58:35;;;;;;;21.70;9.70;;;;;;;2.44;60.18;101534.52;220427;1253;139807;-71
2023/02/09 15:03:41;;;;;;;14.70;10.00;;;;;;;2.35;60.43;101530.20;220224;1254;139260;-70
2023/02/09 15:08:47;;;;;;;16.50;11.80;;;;;;;2.22;60.37;101524.72;218285;1256;139600;-69
2023/02/09 15:14:02;;;;;;;17.30;9.80;;;;;;;2.10;60.46;101516.38;218472;1253;139303;-70
2023/02/09 15:19:19;;;;;;;20.10;10.50;;;;;;;1.96;60.46;101521.61;218591;1254;138932;-66
2023/02/09 15:24:23;;;;;;;22.60;12.70;;;;;;;1.82;60.75;101518.02;218780;1254;141642;-71
2023/02/09 15:29:30;;;;;;;20.00;10.70;;;;;;;1.66;60.81;101512.70;218745;1254;140138;-66
2023/02/09 15:34:35;;;;;;;21.00;10.90;;;;;;;1.49;60.77;101508.75;218168;1254;139875;-70
2023/02/09 15:39:39;;;;;;;31.80;15.10;;;;;;;1.33;61.16;101512.27;218167;1253;140024;-69
2023/02/09 15:50:10;;;;;;;18.50;11.00;;;;;;;0.97;61.26;101506.75;217997;1253;139876;-66
2023/02/09 15:55:21;;;;;;;20.20;12.10;;;;;;;0.79;61.37;101501.48;218158;1256;139813;-68
2023/02/09 16:00:30;;;;;;;22.30;11.70;;;;;;;0.65;61.72;101504.52;219030;1256;140211;-68
2023/02/09 16:05:34;;;;;;;17.30;10.50;;;;;;;0.49;62.03;101497.67;217800;1254;1023350;-67
2023/02/09 16:10:40;;;;;;;19.00;10.70;;;;;;;0.32;61.90;101498.50;219821;1253;139337;-68
2023/02/09 16:15:48;;;;;;;20.70;13.40;;;;;;;0.15;62.24;101496.09;218639;1253;139885;-68
2023/02/09 16:20:53;;;;;;;25.50;14.90;;;;;;;-0.02;62.42;101497.67;218771;1253;139629;-66
2023/02/09 16:25:59;;;;;;;23.30;13.10;;;;;;;-0.15;62.55;101499.41;220222;1253;139426;-68
2023/02/09 16:31:04;;;;;;;29.00;16.30;;;;;;;-0.22;62.91;101498.77;218230;1253;139998;-67
2023/02/09 16:36:18;;;;;;;32.10;15.90;;;;;;;-0.27;63.02;101492.86;220976;1254;140113;-71
2023/02/09 16:46:52;;;;;;;31.10;16.60;;;;;;;-0.49;63.21;101465.62;220714;1253;140342;-69
2023/02/09 16:52:03;;;;;;;48.50;20.70;;;;;;;-0.62;63.18;101456.18;219469;1253;140128;-65
2023/02/09 16:57:13;;;;;;;31.70;18.90;;;;;;;-0.76;63.38;101444.13;218719;1253;140112;-65
2023/02/09 17:02:29;;;;;;;41.70;19.80;;;;;;;-0.86;63.88;101445.14;218285;1257;139469;-65
2023/02/09 17:07:35;;;;;;;38.50;19.30;;;;;;;-0.91;64.03;101460.91;218468;1256;140819;-66
2023/02/09 17:12:58;;;;;;;40.90;21.10;;;;;;;-0.98;64.00;101462.13;218822;1256;248408;-66
2023/02/09 17:18:07;;;;;;;32.00;18.50;;;;;;;-1.04;64.12;101460.78;219954;1254;139998;-68
2023/02/09 17:23:16;;;;;;;35.90;17.40;;;;;;;-1.07;64.47;101462.83;218293;1254;139727;-70
2023/02/09 17:28:26;;;;;;;25.80;15.50;;;;;;;-1.13;64.42;101465.36;218120;1254;161046;-66
2023/02/09 17:33:34;;;;;;;36.60;18.80;;;;;;;-1.20;64.59;101465.17;218471;1253;139639;-65
2023/02/09 17:38:39;;;;;;;28.90;16.10;;;;;;;-1.25;64.70;101457.27;219052;1254;140052;-67
2023/02/09 17:43:45;;;;;;;24.80;14.10;;;;;;;-1.31;64.69;101452.48;218137;1256;140058;-68
2023/02/09 17:48:49;;;;;;;34.10;16.20;;;;;;;-1.35;64.98;101447.37;219090;1254;139574;-69
2023/02/09 17:53:53;;;;;;;22.60;14.50;;;;;;;-1.37;65.14;101444.17;218937;1254;140259;-67
2023/02/09 17:59:01;;;;;;;27.80;14.70;;;;;;;-1.39;65.09;101439.94;218790;1254;140658;-69
2023/02/09 18:04:18;;;;;;;25.30;11.50;;;;;;;-1.38;65.41;101447.60;219527;1254;140611;-64
2023/02/09 18:09:23;;;;;;;22.20;11.40;;;;;;;-1.40;65.40;101443.65;218920;1256;139901;-65
2023/02/09 18:14:30;;;;;;;21.90;12.00;;;;;;;-1.41;65.35;101425.79;219463;1254;139591;-68
2023/02/09 18:19:35;;;;;;;22.00;11.80;;;;;;;-1.42;65.47;101410.73;218694;1254;140821;-66
2023/02/09 18:24:40;;;;;;;21.50;12.20;;;;;;;-1.44;65.59;101402.85;221017;1254;140089;-73
2023/02/09 18:29:45;;;;;;;23.00;12.10;;;;;;;-1.44;65.57;101399.23;220740;1254;140771;-71
2023/02/09 18:34:49;;;;;;;21.60;11.90;;;;;;;-1.44;65.57;101396.36;220203;1254;140364;-71
2023/02/09 18:39:54;;;;;;;25.40;13.90;;;;;;;-1.42;65.66;101396.11;218179;1254;140266;-72
2023/02/09 18:44:59;;;;;;;20.00;11.60;;;;;;;-1.43;65.57;101376.27;220776;1256;152748;-72
2023/02/09 18:50:05;;;;;;;17.70;7.00;;;;;;;-1.43;65.50;101371.07;219047;1254;140646;-73
2023/02/09 18:55:11;;;;;;;26.70;14.10;;;;;;;-1.41;65.76;101376.33;218690;1254;140653;-72
2023/02/09 19:00:20;;;;;;;23.60;13.90;;;;;;;-1.36;65.84;101384.85;218084;1257;140761;-68
2023/02/09 19:05:28;;;;;;;19.60;11.40;;;;;;;-1.30;65.61;101388.71;217722;1254;140805;-64
2023/02/09 19:10:35;;;;;;;23.40;13.30;;;;;;;-1.27;65.58;101389.89;218000;1254;140431;-65
2023/02/09 19:15:41;;;;;;;20.00;12.20;;;;;;;-1.26;65.86;101379.85;218747;1257;139644;-65
2023/02/09 19:20:45;;;;;;;24.10;14.70;;;;;;;-1.27;65.91;101356.42;218800;1258;139961;-65
2023/02/09 19:26:01;;;;;;;21.30;12.50;;;;;;;-1.31;65.93;101350.91;218685;1254;139148;-68
2023/02/09 19:31:12;;;;;;;14.30;8.50;;;;;;;-1.34;65.97;101352.73;217986;1254;139124;-74
2023/02/09 19:36:17;;;;;;;22.80;11.60;;;;;;;-1.37;66.15;101349.66;218029;1254;140932;-71
2023/02/09 19:41:24;;;;;;;19.40;11.90;;;;;;;-1.38;66.16;101348.70;218540;1257;140304;-73
2023/02/09 19:46:30;;;;;;;21.60;12.90;;;;;;;-1.39;66.16;101374.79;218276;1254;140253;-65
2023/02/09 19:51:37;;;;;;;20.20;12.30;;;;;;;-1.39;66.35;101389.41;219329;1253;141104;-71
2023/02/09 19:56:45;;;;;;;28.90;15.90;;;;;;;-1.42;66.34;101390.48;218461;1256;140362;-70
2023/02/09 20:01:53;;;;;;;28.20;13.50;;;;;;;-1.43;66.40;101385.89;218583;1256;141519;-67
2023/02/09 20:06:58;;;;;;;20.50;12.80;;;;;;;-1.45;66.51;101367.89;218533;1254;139243;-66
2023/02/09 20:12:03;;;;;;;23.10;13.00;;;;;;;-1.47;66.69;101367.66;219761;1256;140262;-66
2023/02/09 20:17:09;;;;;;;25.50;13.00;;;;;;;-1.47;66.55;101369.23;221127;1254;141002;-70
2023/02/09 20:22:15;;;;;;;21.60;12.40;;;;;;;-1.36;66.32;101379.95;219424;1254;140508;-76
2023/02/09 20:27:20;;;;;;;26.50;12.60;;;;;;;-1.30;66.40;101375.44;220451;1256;139770;-71
2023/02/09 20:32:27;;;;;;;26.70;13.90;;;;;;;-1.27;66.49;101375.58;219947;1254;140069;-71
2023/02/09 20:37:32;;;;;;;21.90;11.50;;;;;;;-1.27;66.39;101361.27;218451;1255;139465;-70
2023/02/09 20:48:05;;;;;;;23.00;13.70;;;;;;;-1.30;66.79;101359.63;218434;1256;139518;-70
2023/02/09 20:53:12;;;;;;;29.00;15.10;;;;;;;-1.31;66.48;101357.91;218402;1254;139536;-69
2023/02/09 20:58:18;;;;;;;23.70;14.20;;;;;;;-1.35;66.76;101352.65;218307;1254;139705;-67
2023/02/09 21:03:21;;;;;;;26.80;14.60;;;;;;;-1.40;67.10;101352.34;218317;1254;140026;-70
2023/02/09 21:08:25;;;;;;;21.50;10.90;;;;;;;-1.44;66.79;101356.69;217886;1254;139587;-69
2023/02/09 21:13:30;;;;;;;26.80;14.50;;;;;;;-1.47;67.08;101365.27;218330;1254;139102;-81
2023/02/09 21:18:36;;;;;;;31.70;14.80;;;;;;;-1.48;67.28;101372.51;218096;1254;142076;-66
2023/02/09 21:23:42;;;;;;;35.80;17.10;;;;;;;-1.44;67.21;101370.21;218105;1257;140308;-71
2023/02/09 21:28:50;;;;;;;23.30;12.30;;;;;;;-1.42;67.27;101364.37;218383;1254;140720;-70
2023/02/09 21:33:56;;;;;;;28.10;16.00;;;;;;;-1.44;67.33;101359.93;219298;1253;140382;-65
2023/02/09 21:39:00;;;;;;;30.90;16.10;;;;;;;-1.47;67.41;101356.55;219361;1254;140561;-68
2023/02/09 21:44:08;;;;;;;28.00;15.90;;;;;;;-1.50;67.24;101357.61;218179;1254;139606;-68
2023/02/09 21:49:14;;;;;;;20.60;11.50;;;;;;;-1.53;67.46;101352.09;219696;1254;139657;-65
2023/02/09 21:54:20;;;;;;;24.60;14.60;;;;;;;-1.55;67.69;101358.73;219332;1255;139787;-69
2023/02/09 21:59:25;;;;;;;24.70;15.60;;;;;;;-1.55;67.77;101362.80;219845;1254;140001;-67
2023/02/09 22:04:29;;;;;;;24.00;12.60;;;;;;;-1.57;68.02;101354.00;219982;1254;139535;-66
2023/02/09 22:09:34;;;;;;;39.10;17.60;;;;;;;-1.57;67.98;101354.52;219637;1257;140484;-67
2023/02/09 22:14:39;;;;;;;25.90;14.50;;;;;;;-1.50;67.82;101354.36;219688;1254;139639;-72
2023/02/09 22:19:43;;;;;;;31.40;14.70;;;;;;;-1.44;67.85;101352.99;220954;1254;140172;-66
2023/02/09 22:24:47;;;;;;;32.20;15.50;;;;;;;-1.42;68.04;101354.02;219810;1254;139796;-69
2023/02/09 22:29:51;;;;;;;34.30;16.40;;;;;;;-1.42;68.06;101355.99;218709;1254;139936;-67
2023/02/09 22:34:55;;;;;;;22.40;13.00;;;;;;;-1.45;68.10;101365.77;220231;1256;139479;-71
2023/02/09 22:39:59;;;;;;;27.80;13.20;;;;;;;-1.51;67.92;101368.67;218430;1257;139021;-70
2023/02/09 22:45:04;;;;;;;24.60;12.20;;;;;;;-1.57;68.04;101372.69;218383;1256;139896;-69
2023/02/09 22:50:09;;;;;;;28.30;14.00;;;;;;;-1.61;68.02;101377.91;218489;1254;139523;-71
2023/02/09 22:55:14;;;;;;;29.60;14.20;;;;;;;-1.66;68.24;101372.83;218554;1254;140622;-69
2023/02/09 23:00:19;;;;;;;27.20;14.00;;;;;;;-1.69;68.37;101359.98;219268;1256;139795;-68
2023/02/09 23:05:23;;;;;;;29.60;14.00;;;;;;;-1.71;68.42;101357.17;218242;1254;139956;-65
2023/02/09 23:10:28;;;;;;;30.90;18.40;;;;;;;-1.67;68.50;101349.77;218307;1257;139900;-68
2023/02/09 23:15:32;;;;;;;30.80;15.50;;;;;;;-1.66;68.74;101352.10;219421;1256;139960;-75
2023/02/09 23:20:37;;;;;;;33.90;16.00;;;;;;;-1.69;68.28;101354.39;218378;1256;139175;-74